createdAt,value
2023-05-05T00:00:37.841Z,15.89
2023-05-05T00:01:37.934Z,15.88
2023-05-05T00:02:38.194Z,15.89
2023-05-05T00:03:38.205Z,15.88
2023-05-05T00:04:38.165Z,15.88
2023-05-05T00:05:38.260Z,15.89
2023-05-05T00:06:38.339Z,15.88
2023-05-05T00:07:38.497Z,15.88
2023-05-05T00:08:38.595Z,15.88
2023-05-05T00:09:38.607Z,15.88
2023-05-05T00:10:38.708Z,15.86
2023-05-05T00:11:38.794Z,15.88
2023-05-05T00:12:38.938Z,15.85
2023-05-05T00:13:38.953Z,15.85
2023-05-05T00:14:39.048Z,15.85
2023-05-05T00:15:39.154Z,15.84
2023-05-05T00:16:39.314Z,15.85
2023-05-05T00:17:39.322Z,15.85
2023-05-05T00:18:39.379Z,15.82
2023-05-05T00:19:39.471Z,15.82
2023-05-05T00:20:39.547Z,15.84
2023-05-05T00:21:39.603Z,15.84
2023-05-05T00:22:39.716Z,15.81
2023-05-05T00:23:39.778Z,15.82
2023-05-05T00:24:39.854Z,15.82
2023-05-05T00:25:39.948Z,15.81
2023-05-05T00:26:40.028Z,15.82
2023-05-05T00:27:41.012Z,15.81
2023-05-05T00:28:40.159Z,15.81
2023-05-05T00:29:40.251Z,15.81
2023-05-05T00:30:40.345Z,15.79
2023-05-05T00:31:40.585Z,15.79
2023-05-05T00:32:40.553Z,15.79
2023-05-05T00:33:40.590Z,15.78
2023-05-05T00:34:40.703Z,15.81
2023-05-05T00:35:40.788Z,15.78
2023-05-05T00:36:40.881Z,15.78
2023-05-05T00:37:40.961Z,15.76
2023-05-05T00:38:41.033Z,15.78
2023-05-05T00:39:41.099Z,15.76
2023-05-05T00:40:41.205Z,15.78
2023-05-05T00:41:41.311Z,15.76
2023-05-05T00:42:41.364Z,15.76
2023-05-05T00:43:41.477Z,15.75
2023-05-05T00:44:41.534Z,15.75
2023-05-05T00:45:41.589Z,15.75
2023-05-05T00:46:41.771Z,15.75
2023-05-05T00:47:41.798Z,15.74
2023-05-05T00:48:41.856Z,15.75
2023-05-05T00:49:41.922Z,15.75
2023-05-05T00:50:41.987Z,15.74
2023-05-05T00:51:42.101Z,15.72
2023-05-05T00:52:42.191Z,15.74
2023-05-05T00:53:42.229Z,15.72
2023-05-05T00:54:42.333Z,15.74
2023-05-05T00:55:42.425Z,15.74
2023-05-05T00:56:42.552Z,15.72
2023-05-05T00:57:42.605Z,15.72
2023-05-05T00:58:42.709Z,15.72
2023-05-05T00:59:42.757Z,15.70
2023-05-05T01:00:42.876Z,15.70
2023-05-05T01:01:42.972Z,15.70
2023-05-05T01:02:43.065Z,15.70
2023-05-05T01:03:43.210Z,15.68
2023-05-05T01:04:43.147Z,15.68
2023-05-05T01:05:43.230Z,15.68
2023-05-05T01:06:43.342Z,15.67
2023-05-05T01:07:43.409Z,15.66
2023-05-05T01:08:43.509Z,15.67
2023-05-05T01:09:43.551Z,15.67
2023-05-05T01:10:43.650Z,15.64
2023-05-05T01:11:43.748Z,15.63
2023-05-05T01:12:43.813Z,15.63
2023-05-05T01:13:43.868Z,15.63
2023-05-05T01:14:43.974Z,15.61
2023-05-05T01:15:44.058Z,15.61
2023-05-05T01:16:44.238Z,15.63
2023-05-05T01:17:45.086Z,15.63
2023-05-05T01:18:44.299Z,15.61
2023-05-05T01:19:44.388Z,15.61
2023-05-05T01:20:44.492Z,15.61
2023-05-05T01:21:44.558Z,15.61
2023-05-05T01:22:44.683Z,15.60
2023-05-05T01:23:44.684Z,15.59
2023-05-05T01:24:44.783Z,15.59
2023-05-05T01:25:44.868Z,15.57
2023-05-05T01:26:44.960Z,15.56
2023-05-05T01:27:44.997Z,15.54
2023-05-05T01:28:45.104Z,15.54
2023-05-05T01:29:45.217Z,15.52
2023-05-05T01:30:45.277Z,15.51
2023-05-05T01:31:45.440Z,15.49
2023-05-05T01:32:45.465Z,15.48
2023-05-05T01:33:45.483Z,15.46
2023-05-05T01:34:45.585Z,15.46
2023-05-05T01:35:45.679Z,15.45
2023-05-05T01:36:45.794Z,15.43
2023-05-05T01:37:45.833Z,15.45
2023-05-05T01:38:45.928Z,15.45
2023-05-05T01:39:45.980Z,15.45
2023-05-05T01:40:46.078Z,15.45
2023-05-05T01:41:46.177Z,15.43
2023-05-05T01:42:46.244Z,15.43
2023-05-05T01:43:46.330Z,15.42
2023-05-05T01:44:46.451Z,15.42
2023-05-05T01:45:46.514Z,15.41
2023-05-05T01:46:46.620Z,15.41
2023-05-05T01:47:46.678Z,15.39
2023-05-05T01:48:46.763Z,15.41
2023-05-05T01:49:46.817Z,15.39
2023-05-05T01:50:46.901Z,15.39
2023-05-05T01:51:47.014Z,15.38
2023-05-05T01:52:47.065Z,15.39
2023-05-05T01:53:47.193Z,15.38
2023-05-05T01:54:47.252Z,15.38
2023-05-05T01:55:47.277Z,15.38
2023-05-05T01:56:47.421Z,15.38
2023-05-05T01:57:47.459Z,15.39
2023-05-05T01:58:47.549Z,15.38
2023-05-05T01:59:47.648Z,15.38
2023-05-05T02:00:47.750Z,15.36
2023-05-05T02:01:47.862Z,15.38
2023-05-05T02:02:47.951Z,15.36
2023-05-05T02:03:47.962Z,15.35
2023-05-05T02:04:48.078Z,15.35
2023-05-05T02:05:48.135Z,15.35
2023-05-05T02:06:48.270Z,15.31
2023-05-05T02:07:48.283Z,15.33
2023-05-05T02:08:48.390Z,15.31
2023-05-05T02:09:48.443Z,15.33
2023-05-05T02:10:48.489Z,15.31
2023-05-05T02:11:48.649Z,15.30
2023-05-05T02:17:51.748Z,14.99
2023-05-05T02:18:51.058Z,14.95
2023-05-05T02:19:51.242Z,14.94
2023-05-05T02:20:51.203Z,14.95
2023-05-05T02:21:51.291Z,14.98
2023-05-05T02:22:51.372Z,14.99
2023-05-05T02:23:51.459Z,15.01
2023-05-05T02:24:51.514Z,15.05
2023-05-05T02:25:51.619Z,15.05
2023-05-05T02:26:51.698Z,15.08
2023-05-05T02:27:51.826Z,15.06
2023-05-05T02:28:51.896Z,15.09
2023-05-05T02:30:12.474Z,15.09
2023-05-05T02:30:52.080Z,15.09
2023-05-05T02:31:52.280Z,15.11
2023-05-05T02:32:52.234Z,15.12
2023-05-05T02:33:52.312Z,15.12
2023-05-05T02:34:52.385Z,15.12
2023-05-05T02:35:52.446Z,15.12
2023-05-05T02:36:52.590Z,15.12
2023-05-05T02:37:52.686Z,15.12
2023-05-05T02:38:52.705Z,15.11
2023-05-05T02:39:52.849Z,15.11
2023-05-05T02:40:53.003Z,15.12
2023-05-05T02:41:52.987Z,15.11
2023-05-05T02:42:53.108Z,15.09
2023-05-05T02:43:53.193Z,15.11
2023-05-05T02:44:53.257Z,15.11
2023-05-05T02:45:53.324Z,15.11
2023-05-05T02:46:53.466Z,15.11
2023-05-05T02:47:53.537Z,15.11
2023-05-05T02:48:53.553Z,15.09
2023-05-05T02:49:53.650Z,15.11
2023-05-05T02:50:53.722Z,15.12
2023-05-05T02:51:53.836Z,15.09
2023-05-05T02:52:53.926Z,15.09
2023-05-05T02:53:53.950Z,15.11
2023-05-05T02:54:54.042Z,15.08
2023-05-05T02:55:54.139Z,15.08
2023-05-05T02:56:54.262Z,15.05
2023-05-05T02:57:54.349Z,15.02
2023-05-05T02:58:54.454Z,15.01
2023-05-05T02:59:54.497Z,14.99
2023-05-05T03:00:54.595Z,14.98
2023-05-05T03:01:54.797Z,14.98
2023-05-05T03:02:54.900Z,14.98
2023-05-05T03:03:54.926Z,14.95
2023-05-05T03:04:54.931Z,14.95
2023-05-05T03:05:55.063Z,14.98
2023-05-05T03:06:55.240Z,14.95
2023-05-05T03:07:55.269Z,14.98
2023-05-05T03:08:55.322Z,14.95
2023-05-05T03:09:55.420Z,14.95
2023-05-05T03:10:55.519Z,14.95
2023-05-05T03:11:55.556Z,14.98
2023-05-05T03:12:55.673Z,14.98
2023-05-05T03:13:55.722Z,14.98
2023-05-05T03:14:55.784Z,14.99
2023-05-05T03:15:55.903Z,15.01
2023-05-05T03:16:55.944Z,14.99
2023-05-05T03:17:56.097Z,14.99
2023-05-05T03:18:56.063Z,14.99
2023-05-05T03:19:56.188Z,14.99
2023-05-05T03:20:56.272Z,14.98
2023-05-05T03:21:56.356Z,14.98
2023-05-05T03:22:56.427Z,14.99
2023-05-05T03:23:56.501Z,14.99
2023-05-05T03:24:56.566Z,14.99
2023-05-05T03:25:56.670Z,14.99
2023-05-05T03:26:56.766Z,14.99
2023-05-05T03:27:56.826Z,14.99
2023-05-05T03:28:56.941Z,14.98
2023-05-05T03:29:57.009Z,14.98
2023-05-05T03:30:57.058Z,14.98
2023-05-05T03:31:57.290Z,14.95
2023-05-05T03:32:57.277Z,14.98
2023-05-05T03:33:57.396Z,14.95
2023-05-05T03:34:57.403Z,14.95
2023-05-05T03:35:57.518Z,14.93
2023-05-05T03:36:57.636Z,14.91
2023-05-05T03:37:57.697Z,14.91
2023-05-05T03:38:57.736Z,14.90
2023-05-05T03:39:57.800Z,14.90
2023-05-05T03:40:57.850Z,14.88
2023-05-05T03:41:57.996Z,14.87
2023-05-05T03:42:58.002Z,14.87
2023-05-05T03:43:58.137Z,14.87
2023-05-05T03:44:58.176Z,14.87
2023-05-05T03:45:58.337Z,14.86
2023-05-05T03:46:58.391Z,14.86
2023-05-05T03:47:58.476Z,14.83
2023-05-05T03:48:58.564Z,14.81
2023-05-05T03:49:58.675Z,14.81
2023-05-05T03:50:58.724Z,14.80
2023-05-05T03:51:58.848Z,14.80
2023-05-05T03:52:58.913Z,14.75
2023-05-05T03:53:59.021Z,14.74
2023-05-05T03:54:59.072Z,14.72
2023-05-05T03:55:59.168Z,14.71
2023-05-05T03:56:59.277Z,14.69
2023-05-05T03:57:59.335Z,14.68
2023-05-05T03:58:59.407Z,14.67
2023-05-05T03:59:59.520Z,14.67
2023-05-05T04:00:59.564Z,14.67
2023-05-05T04:01:59.718Z,14.67
2023-05-05T04:02:59.846Z,14.65
2023-05-05T04:04:00.059Z,14.64
2023-05-05T04:04:59.930Z,14.64
2023-05-05T04:05:59.987Z,14.61
2023-05-05T04:07:00.135Z,14.62
2023-05-05T04:08:00.215Z,14.61
2023-05-05T04:09:00.277Z,14.61
2023-05-05T04:10:00.389Z,14.61
2023-05-05T04:11:00.433Z,14.61
2023-05-05T04:12:00.564Z,14.60
2023-05-05T04:13:00.661Z,14.60
2023-05-05T04:14:00.726Z,14.60
2023-05-05T04:15:00.832Z,14.60
2023-05-05T04:16:00.984Z,14.57
2023-05-05T04:17:01.084Z,14.60
2023-05-05T04:18:01.121Z,14.60
2023-05-05T04:19:01.192Z,14.57
2023-05-05T04:20:01.270Z,14.60
2023-05-05T04:21:01.329Z,14.60
2023-05-05T04:22:01.429Z,14.61
2023-05-05T04:23:01.599Z,14.60
2023-05-05T04:24:10.599Z,14.57
2023-05-05T04:25:01.647Z,14.57
2023-05-05T04:26:01.755Z,14.56
2023-05-05T04:27:01.857Z,14.56
2023-05-05T04:28:01.907Z,14.54
2023-05-05T04:29:01.991Z,14.54
2023-05-05T04:30:02.079Z,14.56
2023-05-05T04:31:02.158Z,14.54
2023-05-05T04:32:02.248Z,14.54
2023-05-05T04:33:02.366Z,14.54
2023-05-05T04:34:02.395Z,14.54
2023-05-05T04:35:02.499Z,14.54
2023-05-05T04:36:02.584Z,14.56
2023-05-05T04:37:02.666Z,14.57
2023-05-05T04:38:02.752Z,14.57
2023-05-05T04:39:02.864Z,14.60
2023-05-05T04:40:02.872Z,14.60
2023-05-05T04:41:02.996Z,14.61
2023-05-05T04:42:03.117Z,14.62
2023-05-05T04:43:03.198Z,14.62
2023-05-05T04:44:03.273Z,14.62
2023-05-05T04:45:03.374Z,14.62
2023-05-05T04:46:03.435Z,14.65
2023-05-05T04:47:03.533Z,14.65
2023-05-05T04:48:03.624Z,14.65
2023-05-05T04:49:03.669Z,14.67
2023-05-05T04:50:03.763Z,14.65
2023-05-05T04:51:03.912Z,14.67
2023-05-05T04:52:03.996Z,14.67
2023-05-05T04:53:04.023Z,14.67
2023-05-05T04:54:04.134Z,14.67
2023-05-05T04:55:04.208Z,14.68
2023-05-05T04:56:04.250Z,14.69
2023-05-05T04:57:04.387Z,14.71
2023-05-05T04:58:04.443Z,14.71
2023-05-05T04:59:04.593Z,14.72
2023-05-05T05:00:04.665Z,14.74
2023-05-05T05:01:04.696Z,14.75
2023-05-05T05:02:04.841Z,14.74
2023-05-05T05:03:04.985Z,14.75
2023-05-05T05:04:05.080Z,14.78
2023-05-05T05:05:05.004Z,14.78
2023-05-05T05:06:05.059Z,14.81
2023-05-05T05:07:05.178Z,14.81
2023-05-05T05:08:05.236Z,14.81
2023-05-05T05:09:05.543Z,14.84
2023-05-05T05:10:05.617Z,14.87
2023-05-05T05:11:05.555Z,14.86
2023-05-05T05:12:05.609Z,14.88
2023-05-05T05:13:05.707Z,14.88
2023-05-05T05:14:05.794Z,14.90
2023-05-05T05:15:05.887Z,14.91
2023-05-05T05:16:05.980Z,14.94
2023-05-05T05:17:06.067Z,14.93
2023-05-05T05:18:06.158Z,14.94
2023-05-05T05:19:06.163Z,14.95
2023-05-05T05:20:06.458Z,14.98
2023-05-05T05:21:06.381Z,14.95
2023-05-05T05:22:06.556Z,14.98
2023-05-05T05:23:06.574Z,14.99
2023-05-05T05:24:06.731Z,14.99
2023-05-05T05:25:06.684Z,15.02
2023-05-05T05:26:06.751Z,15.02
2023-05-05T05:27:09.205Z,15.03
2023-05-05T05:28:10.513Z,15.05
2023-05-05T05:29:06.987Z,15.06
2023-05-05T05:30:07.244Z,15.06
2023-05-05T05:31:07.120Z,15.06
2023-05-05T05:32:07.224Z,15.08
2023-05-05T05:33:07.326Z,15.08
2023-05-05T05:34:07.369Z,15.09
2023-05-05T05:35:07.509Z,15.09
2023-05-05T05:36:07.588Z,15.11
2023-05-05T05:37:07.639Z,15.12
2023-05-05T05:38:07.720Z,15.13
2023-05-05T05:39:07.790Z,15.15
2023-05-05T05:40:08.077Z,15.17
2023-05-05T05:41:07.907Z,15.17
2023-05-05T05:42:07.998Z,15.19
2023-05-05T05:43:08.064Z,15.19
2023-05-05T05:44:08.132Z,15.21
2023-05-05T05:45:08.234Z,15.23
2023-05-05T05:46:09.189Z,15.23
2023-05-05T05:47:08.416Z,15.24
2023-05-05T05:48:08.505Z,15.24
2023-05-05T05:49:08.599Z,15.26
2023-05-05T05:50:08.824Z,15.27
2023-05-05T05:51:08.745Z,15.26
2023-05-05T05:52:08.828Z,15.27
2023-05-05T05:53:08.899Z,15.28
2023-05-05T05:54:09.091Z,15.30
2023-05-05T05:57:39.751Z,15.19
2023-05-05T05:58:39.952Z,15.15
2023-05-05T05:59:40.092Z,15.13
2023-05-05T06:00:40.096Z,15.15
2023-05-05T06:01:40.192Z,15.19
2023-05-05T06:02:40.392Z,15.21
2023-05-05T06:03:40.469Z,15.24
2023-05-05T06:04:40.562Z,15.26
2023-05-05T06:05:40.577Z,15.28
2023-05-05T06:06:40.587Z,15.30
2023-05-05T06:07:40.714Z,15.31
2023-05-05T06:08:40.776Z,15.33
2023-05-05T06:09:40.855Z,15.38
2023-05-05T06:10:40.961Z,15.38
2023-05-05T06:11:41.005Z,15.38
2023-05-05T06:12:41.192Z,15.42
2023-05-05T06:13:41.201Z,15.42
2023-05-05T06:14:41.279Z,15.45
2023-05-05T06:15:41.401Z,15.45
2023-05-05T06:16:41.439Z,15.48
2023-05-05T06:17:42.291Z,15.48
2023-05-05T06:18:41.628Z,15.49
2023-05-05T06:19:41.682Z,15.51
2023-05-05T06:20:41.767Z,15.52
2023-05-05T06:21:41.864Z,15.52
2023-05-05T06:22:41.993Z,15.54
2023-05-05T06:23:42.115Z,15.57
2023-05-05T06:24:42.973Z,15.57
2023-05-05T06:25:42.226Z,15.59
2023-05-05T06:26:42.336Z,15.60
2023-05-05T06:27:42.424Z,15.61
2023-05-05T06:28:42.497Z,15.63
2023-05-05T06:29:42.551Z,15.63
2023-05-05T06:30:42.664Z,15.64
2023-05-05T06:31:42.773Z,15.66
2023-05-05T06:32:42.910Z,15.66
2023-05-05T06:33:42.940Z,15.67
2023-05-05T06:34:43.001Z,15.68
2023-05-05T06:35:43.089Z,15.70
2023-05-05T06:36:43.251Z,15.70
2023-05-05T06:37:43.275Z,15.74
2023-05-05T06:38:43.367Z,15.74
2023-05-05T06:39:43.406Z,15.72
2023-05-05T06:40:43.546Z,15.75
2023-05-05T06:41:43.548Z,15.76
2023-05-05T06:42:43.657Z,15.76
2023-05-05T06:43:43.715Z,15.76
2023-05-05T06:44:43.782Z,15.75
2023-05-05T06:45:44.079Z,15.76
2023-05-05T06:46:44.021Z,15.78
2023-05-05T06:47:44.041Z,15.78
2023-05-05T06:48:44.124Z,15.79
2023-05-05T06:49:44.177Z,15.81
2023-05-05T06:50:44.278Z,15.82
2023-05-05T06:51:44.344Z,15.82
2023-05-05T06:52:44.476Z,15.85
2023-05-05T06:53:44.552Z,15.86
2023-05-05T06:54:44.610Z,15.89
2023-05-05T06:55:44.677Z,15.92
2023-05-05T06:56:44.752Z,15.93
2023-05-05T06:57:44.822Z,15.94
2023-05-05T06:58:44.911Z,15.96
2023-05-05T06:59:44.970Z,15.99
2023-05-05T07:00:45.110Z,16.01
2023-05-05T07:01:45.325Z,16.03
2023-05-05T07:02:45.361Z,16.07
2023-05-05T07:05:25.624Z,16.01
2023-05-05T07:06:27.312Z,16.00
2023-05-05T07:07:26.680Z,16.00
2023-05-05T07:08:26.743Z,16.00
2023-05-05T07:09:26.808Z,16.04
2023-05-05T07:10:26.923Z,16.07
2023-05-05T07:11:27.004Z,16.12
2023-05-05T07:12:27.047Z,16.14
2023-05-05T07:13:27.191Z,16.18
2023-05-05T07:14:27.216Z,16.25
2023-05-05T07:15:29.617Z,16.30
2023-05-05T07:16:27.530Z,16.33
2023-05-05T07:17:27.544Z,16.37
2023-05-05T07:18:27.607Z,16.40
2023-05-05T07:19:27.669Z,16.42
2023-05-05T07:20:27.809Z,16.45
2023-05-05T07:21:27.826Z,16.48
2023-05-05T07:22:27.858Z,16.50
2023-05-05T07:23:28.033Z,16.55
2023-05-05T07:24:28.077Z,16.55
2023-05-05T07:25:28.126Z,16.56
2023-05-05T07:26:28.236Z,16.58
2023-05-05T07:27:28.309Z,16.59
2023-05-05T07:28:28.459Z,16.62
2023-05-05T07:29:28.506Z,16.68
2023-05-05T07:30:28.626Z,16.70
2023-05-05T07:31:28.725Z,16.74
2023-05-05T07:32:28.843Z,16.80
2023-05-05T07:33:28.904Z,16.86
2023-05-05T07:34:28.910Z,16.90
2023-05-05T07:35:29.026Z,16.95
2023-05-05T07:36:29.110Z,17.03
2023-05-05T07:37:29.284Z,17.07
2023-05-05T07:38:29.656Z,17.13
2023-05-05T07:39:29.391Z,17.18
2023-05-05T07:40:29.423Z,17.20
2023-05-05T07:41:29.497Z,17.29
2023-05-05T07:42:29.562Z,17.33
2023-05-05T07:43:29.638Z,17.40
2023-05-05T07:44:29.706Z,17.44
2023-05-05T07:45:29.780Z,17.46
2023-05-05T07:46:29.879Z,17.47
2023-05-05T07:47:29.936Z,17.48
2023-05-05T07:48:30.392Z,17.50
2023-05-05T07:49:30.058Z,17.51
2023-05-05T07:50:30.146Z,17.51
2023-05-05T07:51:30.847Z,17.53
2023-05-05T07:52:44.188Z,17.55
2023-05-05T07:53:30.437Z,17.59
2023-05-05T07:54:30.486Z,17.59
2023-05-05T07:55:30.631Z,17.59
2023-05-05T07:56:30.665Z,17.59
2023-05-05T07:57:30.777Z,17.62
2023-05-05T07:58:30.855Z,17.63
2023-05-05T07:59:30.946Z,17.64
2023-05-05T08:00:30.992Z,17.67
2023-05-05T08:01:31.104Z,17.71
2023-05-05T08:02:31.233Z,17.73
2023-05-05T08:03:31.569Z,17.78
2023-05-05T08:04:31.350Z,17.79
2023-05-05T08:05:31.403Z,17.84
2023-05-05T08:06:31.463Z,17.87
2023-05-05T08:07:31.566Z,17.88
2023-05-05T08:08:31.664Z,17.92
2023-05-05T08:09:31.753Z,17.95
2023-05-05T08:10:31.825Z,18.00
2023-05-05T08:11:31.921Z,18.02
2023-05-05T08:12:32.002Z,18.03
2023-05-05T08:13:32.147Z,18.07
2023-05-05T08:14:32.195Z,18.10
2023-05-05T08:15:32.315Z,18.13
2023-05-05T08:16:32.405Z,18.18
2023-05-05T08:17:32.507Z,18.22
2023-05-05T08:18:32.481Z,18.22
2023-05-05T08:19:32.542Z,18.25
2023-05-05T08:40:11.397Z,17.84
2023-05-05T08:41:12.430Z,17.87
2023-05-05T08:42:15.791Z,17.89
2023-05-05T08:43:12.633Z,17.95
2023-05-05T08:44:12.492Z,18.00
2023-05-05T08:45:12.792Z,18.07
2023-05-05T08:46:12.679Z,18.12
2023-05-05T08:47:12.665Z,18.18
2023-05-05T08:48:12.797Z,18.25
2023-05-05T08:49:12.884Z,18.33
2023-05-05T08:50:12.929Z,18.36
2023-05-05T08:51:13.059Z,18.43
2023-05-05T08:52:13.123Z,18.47
2023-05-05T08:53:13.143Z,18.55
2023-05-05T08:54:13.252Z,18.61
2023-05-05T08:55:13.363Z,18.70
2023-05-05T09:00:02.189Z,18.80
2023-05-05T09:01:00.518Z,18.82
2023-05-05T09:02:00.351Z,18.80
2023-05-05T09:03:00.467Z,18.82
2023-05-05T09:04:00.465Z,18.83
2023-05-05T09:05:00.613Z,18.84
2023-05-05T09:06:00.677Z,18.86
2023-05-05T09:07:00.793Z,18.91
2023-05-05T09:08:00.909Z,18.94
2023-05-05T09:09:00.982Z,18.95
2023-05-05T09:10:01.017Z,18.99
2023-05-05T09:11:01.100Z,18.99
2023-05-05T09:12:01.167Z,18.99
2023-05-05T09:13:01.257Z,19.01
2023-05-05T09:14:01.347Z,19.05
2023-05-05T09:15:01.479Z,19.06
2023-05-05T09:16:01.498Z,19.10
2023-05-05T09:17:01.639Z,19.13
2023-05-05T09:18:01.684Z,19.14
2023-05-05T09:19:01.723Z,19.15
2023-05-05T09:20:01.792Z,19.21
2023-05-05T09:21:02.005Z,19.24
2023-05-05T09:51:20.936Z,18.87
2023-05-05T09:54:24.361Z,18.95
2023-05-05T09:55:17.187Z,18.97
2023-05-05T10:14:03.695Z,19.20
2023-05-05T10:19:27.900Z,19.28
2023-05-05T10:20:48.096Z,19.32
2023-05-05T10:27:18.674Z,19.51
2023-05-05T10:28:20.086Z,19.54
2023-05-05T10:29:21.174Z,19.58
2023-05-05T10:30:19.370Z,19.63
2023-05-05T10:31:25.633Z,19.68
2023-05-05T10:32:46.629Z,19.75
2023-05-05T10:33:31.467Z,19.80
2023-05-05T10:34:19.806Z,19.87
2023-05-05T10:35:19.878Z,19.91
2023-05-05T10:36:19.922Z,19.97
2023-05-05T10:37:20.019Z,20.03
2023-05-05T10:38:20.041Z,20.09
2023-05-05T10:39:20.168Z,20.13
2023-05-05T10:40:20.254Z,20.20
2023-05-05T10:41:20.465Z,20.23
2023-05-05T10:42:20.421Z,20.28
2023-05-05T10:43:20.491Z,20.31
2023-05-05T10:44:20.529Z,20.35
2023-05-05T10:45:20.736Z,20.38
2023-05-05T10:46:20.778Z,20.42
2023-05-05T10:47:22.595Z,20.46
2023-05-05T10:48:21.942Z,20.49
2023-05-05T10:51:11.564Z,20.50
2023-05-05T10:52:14.813Z,20.47
2023-05-05T10:53:13.020Z,20.47
2023-05-05T10:54:14.027Z,20.49
2023-05-05T10:55:13.553Z,20.53
2023-05-05T10:56:15.243Z,20.58
2023-05-05T10:58:51.105Z,20.68
2023-05-05T10:59:38.808Z,20.69
2023-05-05T11:00:36.136Z,20.71
2023-05-05T11:01:36.320Z,20.76
2023-05-05T11:02:35.887Z,20.80
2023-05-05T11:03:36.021Z,20.86
2023-05-05T11:04:57.293Z,20.93
2023-05-05T11:05:36.080Z,20.95
2023-05-05T11:06:36.130Z,20.99
2023-05-05T11:07:36.220Z,21.01
2023-05-05T11:08:36.803Z,21.02
2023-05-05T11:09:36.441Z,21.05
2023-05-05T11:10:36.577Z,21.08
2023-05-05T11:11:36.570Z,21.09
2023-05-05T11:12:38.721Z,21.14
2023-05-05T11:13:36.739Z,21.16
2023-05-05T11:14:36.801Z,21.16
2023-05-05T11:15:36.911Z,21.19
2023-05-05T11:16:38.160Z,21.20
2023-05-05T11:17:37.071Z,21.21
2023-05-05T11:18:37.412Z,21.26
2023-05-05T11:19:37.338Z,21.30
2023-05-05T11:20:37.347Z,21.34
2023-05-05T11:21:37.372Z,21.38
2023-05-05T11:22:37.445Z,21.41
2023-05-05T11:23:37.543Z,21.42
2023-05-05T11:24:37.613Z,21.45
2023-05-05T11:25:38.282Z,21.46
2023-05-05T11:26:37.791Z,21.51
2023-05-05T11:27:38.050Z,21.53
2023-05-05T11:28:37.952Z,21.54
2023-05-05T11:29:38.007Z,21.57
2023-05-05T11:30:38.090Z,21.57
2023-05-05T11:31:38.292Z,21.59
2023-05-05T11:32:38.252Z,21.60
2023-05-05T11:33:38.361Z,21.61
2023-05-05T11:34:38.371Z,21.64
2023-05-05T11:35:38.415Z,21.63
2023-05-05T11:36:38.542Z,21.63
2023-05-05T11:37:38.615Z,21.64
2023-05-05T11:38:38.668Z,21.64
2023-05-05T11:39:38.718Z,21.63
2023-05-05T11:40:38.837Z,21.61
2023-05-05T11:41:38.922Z,21.61
2023-05-05T11:42:39.044Z,21.63
2023-05-05T11:43:39.130Z,21.61
2023-05-05T11:44:39.179Z,21.63
2023-05-05T11:45:39.256Z,21.64
2023-05-05T11:46:39.418Z,21.64
2023-05-05T11:47:39.475Z,21.69
2023-05-05T11:48:39.543Z,21.72
2023-05-05T11:49:39.645Z,21.75
2023-05-05T11:50:39.709Z,21.76
2023-05-05T11:51:39.748Z,21.81
2023-05-05T11:52:39.841Z,21.81
2023-05-05T11:53:39.971Z,21.83
2023-05-05T11:54:40.041Z,21.85
2023-05-05T11:55:40.112Z,21.88
2023-05-05T11:56:40.204Z,21.91
2023-05-05T11:57:40.247Z,21.92
2023-05-05T11:58:40.358Z,21.95
2023-05-05T11:59:40.404Z,21.94
2023-05-05T12:00:40.492Z,21.92
2023-05-05T12:01:40.579Z,21.92
2023-05-05T12:02:40.761Z,21.92
2023-05-05T12:03:41.013Z,21.94
2023-05-05T12:04:40.942Z,21.95
2023-05-05T12:05:40.921Z,22.01
2023-05-05T12:06:41.010Z,22.02
2023-05-05T12:07:41.105Z,22.04
2023-05-05T12:08:41.186Z,22.04
2023-05-05T12:09:41.288Z,22.04
2023-05-05T12:10:41.332Z,22.04
2023-05-05T12:11:41.412Z,22.06
2023-05-05T12:12:41.548Z,22.06
2023-05-05T12:13:41.680Z,22.06
2023-05-05T12:14:41.686Z,22.07
2023-05-05T12:15:41.737Z,22.12
2023-05-05T12:16:41.957Z,22.13
2023-05-05T12:17:42.044Z,22.14
2023-05-05T12:18:42.089Z,22.16
2023-05-05T12:19:42.105Z,22.14
2023-05-05T12:20:42.171Z,22.13
2023-05-05T12:21:42.252Z,22.12
2023-05-05T12:22:42.397Z,22.10
2023-05-05T12:23:43.478Z,22.13
2023-05-05T12:24:42.540Z,22.14
2023-05-05T12:25:42.623Z,22.14
2023-05-05T12:26:42.704Z,22.19
2023-05-05T12:27:42.880Z,22.22
2023-05-05T12:28:42.871Z,22.23
2023-05-05T12:29:42.979Z,22.28
2023-05-05T12:30:43.061Z,22.29
2023-05-05T12:31:43.100Z,22.32
2023-05-05T12:32:43.296Z,22.34
2023-05-05T12:33:43.801Z,22.35
2023-05-05T12:34:43.343Z,22.38
2023-05-05T12:35:43.375Z,22.37
2023-05-05T12:36:43.497Z,22.37
2023-05-05T12:37:43.613Z,22.35
2023-05-05T12:38:43.743Z,22.34
2023-05-05T12:39:43.745Z,22.35
2023-05-05T12:40:43.837Z,22.35
2023-05-05T12:41:43.955Z,22.37
2023-05-05T12:42:45.746Z,22.38
2023-05-05T12:43:44.119Z,22.37
2023-05-05T12:44:44.170Z,22.37
2023-05-05T12:45:44.293Z,22.38
2023-05-05T12:46:44.393Z,22.39
2023-05-05T12:47:44.456Z,22.39
2023-05-05T12:48:47.393Z,22.41
2023-05-05T12:49:44.612Z,22.46
2023-05-05T12:50:44.615Z,22.49
2023-05-05T12:51:44.688Z,22.50
2023-05-05T12:52:44.828Z,22.53
2023-05-05T12:53:44.873Z,22.56
2023-05-05T12:54:44.993Z,22.57
2023-05-05T12:55:45.034Z,22.59
2023-05-05T12:56:45.101Z,22.60
2023-05-05T12:57:45.136Z,22.60
2023-05-05T12:58:45.271Z,22.60
2023-05-05T12:59:45.399Z,22.59
2023-05-05T13:00:45.464Z,22.62
2023-05-05T13:01:45.504Z,22.62
2023-05-05T13:02:46.254Z,22.62
2023-05-05T13:03:45.643Z,22.62
2023-05-05T13:04:45.724Z,22.62
2023-05-05T13:05:45.819Z,22.60
2023-05-05T13:06:45.976Z,22.60
2023-05-05T13:07:46.011Z,22.64
2023-05-05T13:08:46.105Z,22.65
2023-05-05T13:09:46.175Z,22.67
2023-05-05T13:10:46.420Z,22.68
2023-05-05T13:11:46.323Z,22.71
2023-05-05T13:12:46.374Z,22.72
2023-05-05T13:13:46.449Z,22.74
2023-05-05T13:14:46.486Z,22.75
2023-05-05T13:15:46.604Z,22.75
2023-05-05T13:16:46.628Z,22.75
2023-05-05T13:17:46.806Z,22.75
2023-05-05T13:18:46.870Z,22.74
2023-05-05T13:19:46.907Z,22.74
2023-05-05T13:20:46.969Z,22.77
2023-05-05T13:21:47.074Z,22.75
2023-05-05T13:22:47.176Z,22.75
2023-05-05T13:23:47.264Z,22.75
2023-05-05T13:24:52.162Z,22.74
2023-05-05T13:25:47.412Z,22.74
2023-05-05T13:26:47.500Z,22.74
2023-05-05T13:27:47.603Z,22.74
2023-05-05T13:28:47.668Z,22.75
2023-05-05T13:29:47.738Z,22.74
2023-05-05T13:30:47.921Z,22.75
2023-05-05T13:31:47.933Z,22.75
2023-05-05T13:32:47.975Z,22.77
2023-05-05T13:33:48.060Z,22.77
2023-05-05T13:34:48.119Z,22.78
2023-05-05T13:35:48.218Z,22.78
2023-05-05T13:36:48.315Z,22.78
2023-05-05T13:37:48.430Z,22.82
2023-05-05T13:38:48.497Z,22.82
2023-05-05T13:39:48.551Z,22.82
2023-05-05T13:40:48.646Z,22.83
2023-05-05T13:41:48.738Z,22.83
2023-05-05T13:42:48.830Z,22.84
2023-05-05T13:43:48.935Z,22.86
2023-05-05T13:44:48.981Z,22.87
2023-05-05T13:45:49.081Z,22.87
2023-05-05T13:46:49.209Z,22.89
2023-05-05T13:47:49.313Z,22.89
2023-05-05T13:48:49.352Z,22.89
2023-05-05T13:49:49.457Z,22.87
2023-05-05T13:50:49.518Z,22.86
2023-05-05T13:51:49.617Z,22.86
2023-05-05T13:52:49.716Z,22.83
2023-05-05T13:53:49.829Z,22.80
2023-05-05T13:54:49.881Z,22.78
2023-05-05T13:55:49.976Z,22.78
2023-05-05T13:56:50.062Z,22.80
2023-05-05T13:57:50.181Z,22.80
2023-05-05T13:58:50.276Z,22.82
2023-05-05T13:59:50.348Z,22.84
2023-05-05T14:00:50.439Z,22.83
2023-05-05T14:01:50.500Z,22.86
2023-05-05T14:02:50.571Z,22.87
2023-05-05T14:03:50.719Z,22.90
2023-05-05T14:04:50.748Z,22.92
2023-05-05T14:05:50.803Z,22.93
2023-05-05T14:06:50.870Z,22.96
2023-05-05T14:07:50.975Z,22.96
2023-05-05T14:08:51.066Z,22.96
2023-05-05T14:09:51.168Z,22.97
2023-05-05T14:10:52.255Z,22.97
2023-05-05T14:11:51.311Z,22.99
2023-05-05T14:12:51.399Z,22.99
2023-05-05T14:13:51.526Z,22.99
2023-05-05T14:14:51.549Z,23.01
2023-05-05T14:15:51.602Z,23.01
2023-05-05T14:16:51.776Z,23.02
2023-05-05T14:17:51.869Z,23.02
2023-05-05T14:18:51.917Z,23.04
2023-05-05T14:19:51.979Z,23.04
2023-05-05T14:20:52.055Z,23.04
2023-05-05T14:21:52.167Z,23.04
2023-05-05T14:22:52.251Z,23.07
2023-05-05T14:23:52.450Z,23.07
2023-05-05T14:24:52.381Z,23.09
2023-05-05T14:25:52.465Z,23.09
2023-05-05T14:26:52.565Z,23.11
2023-05-05T14:27:52.644Z,23.09
2023-05-05T14:28:52.796Z,23.12